Portada
METAR-TAF:

METAR-TAF

Aeroports :

Gibraltar, Gibraltar

latitud: 36-09N, longitud: 005-21W, altitud: 5 m

Observació

L'informe es va fer fa 1 hora i 1 minuts, a les 21:50 UTC
Vent 12 kt del Oest/Nord-Oest
Temperatura 18°C
Humitat 73%
Pressió 1015 hPa
Visibilitat 10 km o més

METAR: LXGB 242150Z AUTO 29012KT 9999 // FEW090/// 18/13 Q1015

Hora: 00:51 (22:51 UTC)

Pronòstic

L'informe es va fer fa 9 hores i 1 minuts, a les 13:50 UTC
Pronòstic vàlid del 24 a les 15 UTC al 24 a les 22 UTC
Vent 10 kt del Oest
Visibilitat 10 km o més
Escasses núvols a una alçada de 3000 ft
Probabilitat 30% :
Temporalment
l' 24 a les 15 UTC al 24 a les 18 UTC
Vent 15 kt del Sud-Oest amb ràfegues de 25 kt
Núvols disperses a una alçada de 2200 ft

TAF: LXGB 241350Z 2415/2422 26010KT 9999 FEW030 PROB30 TEMPO 2415/2418 23015G25KT SCT022 520002

Observacions i pronòstics meteorològics de més de 4000 aeroports (METAR i TAF).

Les estacions disponibles són els punts grocs i vermells al mapa.

Posi el ratolí al punt desitjat per veure el nom de l'estació.

Feu clic per veure les observacions i els pronòstics meteorològics.

Per canviar el mapa: feu clic els botons verds amb una creu de color negre per apropar; al botó verd amb un guió per allunyar la imatge; o en les fletxes verdes per a mapes adjacents.


METAR-TAF: